Main page
METAR-TAF:

METAR-TAF

Airports :

Pyongyang, North Korea

Pyongyang Sunan International Airport

latitude: 39-02N, longitude: 125-47E, elevation: 36 m

METAR: missing

Time: 12:46 (04:16 UTC)

Forecast

The report was made 7 hours and 26 minutes ago, at 20:50 UTC
Forecast valid from 23 at 00 UTC to 23 at 24 UTC
Wind 6 kt from the Northeast
Visibility 10 km or more
Broken clouds at a height of 3300 ft
Becoming
from 23 at 00 UTC to 23 at 02 UTC
Wind 10 kt from the North
Visibility 10 km or more
no clouds below 1500 m and no cumulonimbus

TAF: ZKPY 222050Z 2300/2324 04003MPS 9999 BKN033 BECMG 2300/2302 36005MPS CAVOK TX18/2307Z TN06/2322Z

Weather observations and forecasts of more than 4000 airports (METAR and TAF reports).

The available stations are represented by yellow and red dots on the map.

Hover mouse over dot to see the name of the station.

Then click to see weather observations and forecasts.

To change the map : click on the green buttons with a black cross to zoom in, on the green button with a dash to zoom out, or on the green arrows for adjacent maps.


METAR-TAF: